sensor_id;sensor_type;location;lat;lon;timestamp;temperature;humidity
68912;SHT31;55953;51.650;-0.522;2022-10-31T00:01:32;11.71;89.18
68912;SHT31;55953;51.650;-0.522;2022-10-31T00:04:03;11.72;89.25
68912;SHT31;55953;51.650;-0.522;2022-10-31T00:06:32;11.71;89.26
68912;SHT31;55953;51.650;-0.522;2022-10-31T00:09:00;11.75;89.40
68912;SHT31;55953;51.650;-0.522;2022-10-31T00:11:31;11.72;89.28
68912;SHT31;55953;51.650;-0.522;2022-10-31T00:13:59;11.72;89.38
68912;SHT31;55953;51.650;-0.522;2022-10-31T00:16:27;11.73;89.37
68912;SHT31;55953;51.650;-0.522;2022-10-31T00:18:57;11.69;89.34
68912;SHT31;55953;51.650;-0.522;2022-10-31T00:21:28;11.65;89.38
68912;SHT31;55953;51.650;-0.522;2022-10-31T00:23:57;11.63;89.51
68912;SHT31;55953;51.650;-0.522;2022-10-31T00:26:29;11.64;89.50
68912;SHT31;55953;51.650;-0.522;2022-10-31T00:28:59;11.68;89.52
68912;SHT31;55953;51.650;-0.522;2022-10-31T00:31:27;11.71;89.54
68912;SHT31;55953;51.650;-0.522;2022-10-31T00:33:56;11.70;89.47
68912;SHT31;55953;51.650;-0.522;2022-10-31T00:36:26;11.71;89.66
68912;SHT31;55953;51.650;-0.522;2022-10-31T00:38:54;11.67;89.50
68912;SHT31;55953;51.650;-0.522;2022-10-31T00:41:23;11.64;89.65
68912;SHT31;55953;51.650;-0.522;2022-10-31T00:43:51;11.63;89.80
68912;SHT31;55953;51.650;-0.522;2022-10-31T00:46:19;11.63;89.76
68912;SHT31;55953;51.650;-0.522;2022-10-31T00:48:47;11.62;89.90
68912;SHT31;55953;51.650;-0.522;2022-10-31T00:51:14;11.61;90.05
68912;SHT31;55953;51.650;-0.522;2022-10-31T00:53:42;11.60;90.13
68912;SHT31;55953;51.650;-0.522;2022-10-31T00:56:10;11.61;90.19
68912;SHT31;55953;51.650;-0.522;2022-10-31T00:58:38;11.62;90.32
68912;SHT31;55953;51.650;-0.522;2022-10-31T01:01:06;11.66;90.38
68912;SHT31;55953;51.650;-0.522;2022-10-31T01:03:35;11.72;90.36
68912;SHT31;55953;51.650;-0.522;2022-10-31T01:06:04;11.76;90.28
68912;SHT31;55953;51.650;-0.522;2022-10-31T01:08:36;11.78;90.18
68912;SHT31;55953;51.650;-0.522;2022-10-31T01:11:07;11.81;90.02
68912;SHT31;55953;51.650;-0.522;2022-10-31T01:13:39;11.78;89.98
68912;SHT31;55953;51.650;-0.522;2022-10-31T01:16:08;11.75;89.94
68912;SHT31;55953;51.650;-0.522;2022-10-31T01:18:40;11.77;90.08
68912;SHT31;55953;51.650;-0.522;2022-10-31T01:21:26;11.80;90.05
68912;SHT31;55953;51.650;-0.522;2022-10-31T01:23:59;11.80;90.05
68912;SHT31;55953;51.650;-0.522;2022-10-31T01:26:30;11.85;90.06
68912;SHT31;55953;51.650;-0.522;2022-10-31T01:29:00;11.85;89.86
68912;SHT31;55953;51.650;-0.522;2022-10-31T01:31:34;11.83;89.92
68912;SHT31;55953;51.650;-0.522;2022-10-31T01:34:05;11.78;89.82
68912;SHT31;55953;51.650;-0.522;2022-10-31T01:36:36;11.74;89.96
68912;SHT31;55953;51.650;-0.522;2022-10-31T01:39:10;11.74;90.18
68912;SHT31;55953;51.650;-0.522;2022-10-31T01:41:44;11.77;90.24
68912;SHT31;55953;51.650;-0.522;2022-10-31T01:52:07;11.90;90.21
68912;SHT31;55953;51.650;-0.522;2022-10-31T01:55:35;11.94;90.07
68912;SHT31;55953;51.650;-0.522;2022-10-31T01:58:16;11.95;90.11
68912;SHT31;55953;51.650;-0.522;2022-10-31T02:00:51;11.97;90.08
68912;SHT31;55953;51.650;-0.522;2022-10-31T02:03:28;12.01;90.10
68912;SHT31;55953;51.650;-0.522;2022-10-31T02:05:58;12.06;90.07
68912;SHT31;55953;51.650;-0.522;2022-10-31T02:08:27;12.12;89.95
68912;SHT31;55953;51.650;-0.522;2022-10-31T02:10:57;12.12;89.98
68912;SHT31;55953;51.650;-0.522;2022-10-31T02:13:28;12.16;90.00
68912;SHT31;55953;51.650;-0.522;2022-10-31T02:15:57;12.18;89.95
68912;SHT31;55953;51.650;-0.522;2022-10-31T02:18:26;12.16;90.04
68912;SHT31;55953;51.650;-0.522;2022-10-31T02:21:09;12.23;90.11
68912;SHT31;55953;51.650;-0.522;2022-10-31T02:35:03;12.51;89.57
68912;SHT31;55953;51.650;-0.522;2022-10-31T02:40:59;12.48;89.56
68912;SHT31;55953;51.650;-0.522;2022-10-31T02:46:53;12.43;89.73
68912;SHT31;55953;51.650;-0.522;2022-10-31T02:49:32;12.47;89.58
68912;SHT31;55953;51.650;-0.522;2022-10-31T02:54:47;12.35;89.38
68912;SHT31;55953;51.650;-0.522;2022-10-31T02:57:17;12.25;89.40
68912;SHT31;55953;51.650;-0.522;2022-10-31T03:00:01;12.25;89.72
68912;SHT31;55953;51.650;-0.522;2022-10-31T03:08:54;12.20;89.92
68912;SHT31;55953;51.650;-0.522;2022-10-31T03:11:43;12.23;90.12
68912;SHT31;55953;51.650;-0.522;2022-10-31T03:14:25;12.21;90.00
68912;SHT31;55953;51.650;-0.522;2022-10-31T03:17:05;12.20;90.03
68912;SHT31;55953;51.650;-0.522;2022-10-31T03:19:47;12.17;89.97
68912;SHT31;55953;51.650;-0.522;2022-10-31T03:22:22;12.12;90.09
68912;SHT31;55953;51.650;-0.522;2022-10-31T03:24:53;12.12;90.15
68912;SHT31;55953;51.650;-0.522;2022-10-31T03:27:25;12.09;90.26
68912;SHT31;55953;51.650;-0.522;2022-10-31T03:30:00;12.05;90.30
68912;SHT31;55953;51.650;-0.522;2022-10-31T03:32:38;12.05;90.33
68912;SHT31;55953;51.650;-0.522;2022-10-31T03:35:15;12.05;90.35
68912;SHT31;55953;51.650;-0.522;2022-10-31T03:37:48;12.09;90.31
68912;SHT31;55953;51.650;-0.522;2022-10-31T03:40:20;12.09;90.26
68912;SHT31;55953;51.650;-0.522;2022-10-31T03:42:54;12.06;90.18
68912;SHT31;55953;51.650;-0.522;2022-10-31T03:45:31;12.03;90.19
68912;SHT31;55953;51.650;-0.522;2022-10-31T03:48:03;12.05;90.33
68912;SHT31;55953;51.650;-0.522;2022-10-31T03:50:36;12.06;90.33
68912;SHT31;55953;51.650;-0.522;2022-10-31T03:53:37;12.13;90.32
68912;SHT31;55953;51.650;-0.522;2022-10-31T03:56:18;12.22;90.31
68912;SHT31;55953;51.650;-0.522;2022-10-31T03:59:07;12.27;90.10
68912;SHT31;55953;51.650;-0.522;2022-10-31T04:01:48;12.30;89.97
68912;SHT31;55953;51.650;-0.522;2022-10-31T04:04:21;12.28;89.90
68912;SHT31;55953;51.650;-0.522;2022-10-31T04:06:49;12.29;90.02
68912;SHT31;55953;51.650;-0.522;2022-10-31T04:09:19;12.30;90.03
68912;SHT31;55953;51.650;-0.522;2022-10-31T04:11:50;12.32;90.08
68912;SHT31;55953;51.650;-0.522;2022-10-31T04:14:47;12.29;90.03
68912;SHT31;55953;51.650;-0.522;2022-10-31T04:17:18;12.29;90.17
68912;SHT31;55953;51.650;-0.522;2022-10-31T04:19:50;12.31;90.16
68912;SHT31;55953;51.650;-0.522;2022-10-31T04:22:18;12.39;90.18
68912;SHT31;55953;51.650;-0.522;2022-10-31T04:24:46;12.47;90.05
68912;SHT31;55953;51.650;-0.522;2022-10-31T04:27:15;12.46;89.76
68912;SHT31;55953;51.650;-0.522;2022-10-31T04:29:43;12.45;89.89
68912;SHT31;55953;51.650;-0.522;2022-10-31T04:32:16;12.44;89.80
68912;SHT31;55953;51.650;-0.522;2022-10-31T04:34:44;12.47;90.16
68912;SHT31;55953;51.650;-0.522;2022-10-31T04:37:12;12.48;90.13
68912;SHT31;55953;51.650;-0.522;2022-10-31T04:39:40;12.51;90.29
68912;SHT31;55953;51.650;-0.522;2022-10-31T04:42:40;12.61;90.18
68912;SHT31;55953;51.650;-0.522;2022-10-31T04:45:09;12.63;90.02
68912;SHT31;55953;51.650;-0.522;2022-10-31T04:47:37;12.71;90.06
68912;SHT31;55953;51.650;-0.522;2022-10-31T04:50:05;12.70;89.81
68912;SHT31;55953;51.650;-0.522;2022-10-31T04:52:38;12.70;89.93
68912;SHT31;55953;51.650;-0.522;2022-10-31T04:55:09;12.73;90.03
68912;SHT31;55953;51.650;-0.522;2022-10-31T04:57:58;12.79;89.99
68912;SHT31;55953;51.650;-0.522;2022-10-31T05:00:27;12.82;89.97
68912;SHT31;55953;51.650;-0.522;2022-10-31T05:02:56;12.87;89.71
68912;SHT31;55953;51.650;-0.522;2022-10-31T05:05:28;12.84;89.71
68912;SHT31;55953;51.650;-0.522;2022-10-31T05:07:59;12.84;89.79
68912;SHT31;55953;51.650;-0.522;2022-10-31T05:10:29;12.82;89.77
68912;SHT31;55953;51.650;-0.522;2022-10-31T05:13:00;12.83;89.74
68912;SHT31;55953;51.650;-0.522;2022-10-31T05:15:59;12.85;89.78
68912;SHT31;55953;51.650;-0.522;2022-10-31T05:18:42;12.81;89.80
68912;SHT31;55953;51.650;-0.522;2022-10-31T05:21:16;12.83;89.85
68912;SHT31;55953;51.650;-0.522;2022-10-31T05:23:49;12.84;89.86
68912;SHT31;55953;51.650;-0.522;2022-10-31T05:26:16;12.85;89.78
68912;SHT31;55953;51.650;-0.522;2022-10-31T05:28:44;12.85;89.84
68912;SHT31;55953;51.650;-0.522;2022-10-31T05:31:12;12.84;89.75
68912;SHT31;55953;51.650;-0.522;2022-10-31T05:33:41;12.86;89.87
68912;SHT31;55953;51.650;-0.522;2022-10-31T05:36:27;12.91;89.81
68912;SHT31;55953;51.650;-0.522;2022-10-31T05:39:18;12.93;89.73
68912;SHT31;55953;51.650;-0.522;2022-10-31T05:41:48;12.89;89.71
68912;SHT31;55953;51.650;-0.522;2022-10-31T05:44:19;12.84;89.80
68912;SHT31;55953;51.650;-0.522;2022-10-31T05:46:56;12.83;89.99
68912;SHT31;55953;51.650;-0.522;2022-10-31T05:49:43;12.79;90.02
68912;SHT31;55953;51.650;-0.522;2022-10-31T05:52:29;12.79;90.04
68912;SHT31;55953;51.650;-0.522;2022-10-31T05:55:03;12.75;90.14
68912;SHT31;55953;51.650;-0.522;2022-10-31T05:57:31;12.77;90.18
68912;SHT31;55953;51.650;-0.522;2022-10-31T06:00:00;12.78;90.13
68912;SHT31;55953;51.650;-0.522;2022-10-31T06:02:33;12.80;90.12
68912;SHT31;55953;51.650;-0.522;2022-10-31T06:05:20;12.78;90.05
68912;SHT31;55953;51.650;-0.522;2022-10-31T06:07:48;12.78;89.97
68912;SHT31;55953;51.650;-0.522;2022-10-31T06:10:16;12.74;89.89
68912;SHT31;55953;51.650;-0.522;2022-10-31T06:12:44;12.71;89.91
68912;SHT31;55953;51.650;-0.522;2022-10-31T06:15:33;12.66;89.93
68912;SHT31;55953;51.650;-0.522;2022-10-31T06:18:02;12.64;89.98
68912;SHT31;55953;51.650;-0.522;2022-10-31T06:20:35;12.62;89.96
68912;SHT31;55953;51.650;-0.522;2022-10-31T06:23:03;12.59;89.98
68912;SHT31;55953;51.650;-0.522;2022-10-31T06:25:33;12.59;89.84
68912;SHT31;55953;51.650;-0.522;2022-10-31T06:28:03;12.54;89.87
68912;SHT31;55953;51.650;-0.522;2022-10-31T06:31:04;12.52;89.88
68912;SHT31;55953;51.650;-0.522;2022-10-31T06:33:33;12.48;89.91
68912;SHT31;55953;51.650;-0.522;2022-10-31T06:36:02;12.44;89.99
68912;SHT31;55953;51.650;-0.522;2022-10-31T06:38:30;12.41;90.10
68912;SHT31;55953;51.650;-0.522;2022-10-31T06:41:01;12.41;90.17
68912;SHT31;55953;51.650;-0.522;2022-10-31T06:43:51;12.40;90.27
68912;SHT31;55953;51.650;-0.522;2022-10-31T06:46:33;12.41;90.41
68912;SHT31;55953;51.650;-0.522;2022-10-31T06:49:22;12.42;90.37
68912;SHT31;55953;51.650;-0.522;2022-10-31T06:51:53;12.47;90.40
68912;SHT31;55953;51.650;-0.522;2022-10-31T06:54:21;12.46;90.31
68912;SHT31;55953;51.650;-0.522;2022-10-31T06:56:49;12.43;90.50
68912;SHT31;55953;51.650;-0.522;2022-10-31T06:59:17;12.44;90.54
68912;SHT31;55953;51.650;-0.522;2022-10-31T07:02:17;12.48;90.55
68912;SHT31;55953;51.650;-0.522;2022-10-31T07:04:45;12.55;90.48
68912;SHT31;55953;51.650;-0.522;2022-10-31T07:07:13;12.57;90.37
68912;SHT31;55953;51.650;-0.522;2022-10-31T07:09:41;12.59;90.50
68912;SHT31;55953;51.650;-0.522;2022-10-31T07:12:10;12.64;90.32
68912;SHT31;55953;51.650;-0.522;2022-10-31T07:14:40;12.67;90.23
68912;SHT31;55953;51.650;-0.522;2022-10-31T07:17:08;12.74;90.13
68912;SHT31;55953;51.650;-0.522;2022-10-31T07:19:39;12.71;90.04
68912;SHT31;55953;51.650;-0.522;2022-10-31T07:22:07;12.70;90.15
68912;SHT31;55953;51.650;-0.522;2022-10-31T07:24:36;12.80;90.31
68912;SHT31;55953;51.650;-0.522;2022-10-31T07:27:39;12.86;90.11
68912;SHT31;55953;51.650;-0.522;2022-10-31T07:30:11;12.94;90.11
68912;SHT31;55953;51.650;-0.522;2022-10-31T07:32:42;12.99;89.76
68912;SHT31;55953;51.650;-0.522;2022-10-31T07:35:14;13.02;89.80
68912;SHT31;55953;51.650;-0.522;2022-10-31T07:37:56;13.10;89.65
68912;SHT31;55953;51.650;-0.522;2022-10-31T07:40:25;13.14;89.61
68912;SHT31;55953;51.650;-0.522;2022-10-31T07:42:53;13.15;89.51
68912;SHT31;55953;51.650;-0.522;2022-10-31T07:45:39;13.21;89.51
68912;SHT31;55953;51.650;-0.522;2022-10-31T07:48:25;13.21;89.54
68912;SHT31;55953;51.650;-0.522;2022-10-31T07:51:12;13.26;89.54
68912;SHT31;55953;51.650;-0.522;2022-10-31T07:53:58;13.31;89.53
68912;SHT31;55953;51.650;-0.522;2022-10-31T07:56:29;13.33;89.38
68912;SHT31;55953;51.650;-0.522;2022-10-31T07:58:57;13.42;89.50
68912;SHT31;55953;51.650;-0.522;2022-10-31T08:01:25;13.54;89.23
68912;SHT31;55953;51.650;-0.522;2022-10-31T08:04:08;13.55;89.00
68912;SHT31;55953;51.650;-0.522;2022-10-31T08:06:54;13.60;89.02
68912;SHT31;55953;51.650;-0.522;2022-10-31T08:09:29;13.65;88.94
68912;SHT31;55953;51.650;-0.522;2022-10-31T08:11:58;13.65;88.76
68912;SHT31;55953;51.650;-0.522;2022-10-31T08:14:27;13.62;88.72
68912;SHT31;55953;51.650;-0.522;2022-10-31T08:16:55;13.65;88.93
68912;SHT31;55953;51.650;-0.522;2022-10-31T08:19:25;13.67;88.91
68912;SHT31;55953;51.650;-0.522;2022-10-31T08:21:53;13.70;88.89
68912;SHT31;55953;51.650;-0.522;2022-10-31T08:24:25;13.75;88.89
68912;SHT31;55953;51.650;-0.522;2022-10-31T08:26:54;13.81;88.93
68912;SHT31;55953;51.650;-0.522;2022-10-31T08:29:22;13.88;88.76
68912;SHT31;55953;51.650;-0.522;2022-10-31T08:31:50;13.88;88.68
68912;SHT31;55953;51.650;-0.522;2022-10-31T08:34:37;13.87;88.75
68912;SHT31;55953;51.650;-0.522;2022-10-31T08:37:23;13.86;88.66
68912;SHT31;55953;51.650;-0.522;2022-10-31T08:39:54;13.83;88.74
68912;SHT31;55953;51.650;-0.522;2022-10-31T08:42:22;13.88;88.72
68912;SHT31;55953;51.650;-0.522;2022-10-31T08:44:49;13.85;88.64
68912;SHT31;55953;51.650;-0.522;2022-10-31T08:47:20;13.92;88.97
68912;SHT31;55953;51.650;-0.522;2022-10-31T08:49:48;14.00;88.98
68912;SHT31;55953;51.650;-0.522;2022-10-31T08:52:15;14.09;88.97
68912;SHT31;55953;51.650;-0.522;2022-10-31T08:54:44;14.15;88.90
68912;SHT31;55953;51.650;-0.522;2022-10-31T08:57:30;14.27;88.87
68912;SHT31;55953;51.650;-0.522;2022-10-31T08:59:59;14.36;88.62
68912;SHT31;55953;51.650;-0.522;2022-10-31T09:02:41;14.41;88.44
68912;SHT31;55953;51.650;-0.522;2022-10-31T09:05:08;14.49;88.45
68912;SHT31;55953;51.650;-0.522;2022-10-31T09:07:37;14.51;88.27
68912;SHT31;55953;51.650;-0.522;2022-10-31T09:10:05;14.62;88.43
68912;SHT31;55953;51.650;-0.522;2022-10-31T09:12:35;14.76;88.30
68912;SHT31;55953;51.650;-0.522;2022-10-31T09:15:21;14.82;87.97
68912;SHT31;55953;51.650;-0.522;2022-10-31T09:17:57;14.90;88.11
68912;SHT31;55953;51.650;-0.522;2022-10-31T09:20:51;15.06;87.94
68912;SHT31;55953;51.650;-0.522;2022-10-31T09:23:20;15.15;87.73
68912;SHT31;55953;51.650;-0.522;2022-10-31T09:25:50;15.17;87.64
68912;SHT31;55953;51.650;-0.522;2022-10-31T09:28:41;15.23;87.43
68912;SHT31;55953;51.650;-0.522;2022-10-31T09:31:12;15.28;87.51
68912;SHT31;55953;51.650;-0.522;2022-10-31T09:33:48;15.36;87.44
68912;SHT31;55953;51.650;-0.522;2022-10-31T09:36:43;15.49;87.47
68912;SHT31;55953;51.650;-0.522;2022-10-31T09:39:20;15.62;87.29
68912;SHT31;55953;51.650;-0.522;2022-10-31T09:47:52;15.94;86.60
68912;SHT31;55953;51.650;-0.522;2022-10-31T09:50:34;16.06;86.23
68912;SHT31;55953;51.650;-0.522;2022-10-31T09:53:39;16.14;86.10
68912;SHT31;55953;51.650;-0.522;2022-10-31T09:56:20;16.24;85.75
68912;SHT31;55953;51.650;-0.522;2022-10-31T09:58:58;16.33;85.42
68912;SHT31;55953;51.650;-0.522;2022-10-31T10:01:30;16.36;85.50
68912;SHT31;55953;51.650;-0.522;2022-10-31T10:04:28;16.44;85.17
68912;SHT31;55953;51.650;-0.522;2022-10-31T10:22:50;16.60;83.57
68912;SHT31;55953;51.650;-0.522;2022-10-31T10:25:28;16.59;83.56
68912;SHT31;55953;51.650;-0.522;2022-10-31T10:30:57;16.75;83.26
68912;SHT31;55953;51.650;-0.522;2022-10-31T10:33:39;16.81;82.97
68912;SHT31;55953;51.650;-0.522;2022-10-31T10:36:25;16.82;82.69
68912;SHT31;55953;51.650;-0.522;2022-10-31T10:39:18;16.81;82.69
68912;SHT31;55953;51.650;-0.522;2022-10-31T10:41:52;16.77;82.77
68912;SHT31;55953;51.650;-0.522;2022-10-31T10:44:39;16.82;82.50
68912;SHT31;55953;51.650;-0.522;2022-10-31T10:47:35;16.82;82.20
68912;SHT31;55953;51.650;-0.522;2022-10-31T10:53:01;16.95;82.16
68912;SHT31;55953;51.650;-0.522;2022-10-31T10:55:36;16.97;81.52
68912;SHT31;55953;51.650;-0.522;2022-10-31T10:58:16;16.94;82.00
68912;SHT31;55953;51.650;-0.522;2022-10-31T11:00:44;17.02;81.92
68912;SHT31;55953;51.650;-0.522;2022-10-31T11:03:16;17.05;81.65
68912;SHT31;55953;51.650;-0.522;2022-10-31T11:05:58;17.09;81.00
68912;SHT31;55953;51.650;-0.522;2022-10-31T11:08:28;17.10;80.75
68912;SHT31;55953;51.650;-0.522;2022-10-31T11:11:38;17.12;80.67
68912;SHT31;55953;51.650;-0.522;2022-10-31T11:14:05;17.11;80.44
68912;SHT31;55953;51.650;-0.522;2022-10-31T11:16:43;17.11;80.20
68912;SHT31;55953;51.650;-0.522;2022-10-31T11:21:49;17.07;79.41
68912;SHT31;55953;51.650;-0.522;2022-10-31T11:24:21;16.97;79.20
68912;SHT31;55953;51.650;-0.522;2022-10-31T11:27:02;16.97;79.86
68912;SHT31;55953;51.650;-0.522;2022-10-31T11:29:40;17.03;79.33
68912;SHT31;55953;51.650;-0.522;2022-10-31T11:32:14;16.98;79.08
68912;SHT31;55953;51.650;-0.522;2022-10-31T11:34:54;16.94;79.15
68912;SHT31;55953;51.650;-0.522;2022-10-31T11:37:28;16.93;79.10
68912;SHT31;55953;51.650;-0.522;2022-10-31T11:40:04;16.95;79.00
68912;SHT31;55953;51.650;-0.522;2022-10-31T11:42:43;16.92;78.68
68912;SHT31;55953;51.650;-0.522;2022-10-31T11:45:16;16.89;78.80
68912;SHT31;55953;51.650;-0.522;2022-10-31T11:47:56;16.92;78.24
68912;SHT31;55953;51.650;-0.522;2022-10-31T11:50:47;16.93;78.41
68912;SHT31;55953;51.650;-0.522;2022-10-31T11:53:20;16.93;78.37
68912;SHT31;55953;51.650;-0.522;2022-10-31T11:56:15;16.92;78.77
68912;SHT31;55953;51.650;-0.522;2022-10-31T11:58:54;16.96;78.62
68912;SHT31;55953;51.650;-0.522;2022-10-31T12:01:25;17.10;78.40
68912;SHT31;55953;51.650;-0.522;2022-10-31T12:06:34;17.33;78.76
68912;SHT31;55953;51.650;-0.522;2022-10-31T12:11:54;17.51;77.82
68912;SHT31;55953;51.650;-0.522;2022-10-31T12:20:20;17.48;77.37
68912;SHT31;55953;51.650;-0.522;2022-10-31T12:28:54;17.31;76.75
68912;SHT31;55953;51.650;-0.522;2022-10-31T12:37:24;17.39;75.98
68912;SHT31;55953;51.650;-0.522;2022-10-31T12:50:12;17.43;75.16
68912;SHT31;55953;51.650;-0.522;2022-10-31T12:58:46;17.13;75.16
68912;SHT31;55953;51.650;-0.522;2022-10-31T13:01:24;17.06;75.98
68912;SHT31;55953;51.650;-0.522;2022-10-31T13:07:05;17.10;76.34
68912;SHT31;55953;51.650;-0.522;2022-10-31T13:12:46;17.22;75.99
68912;SHT31;55953;51.650;-0.522;2022-10-31T13:15:20;17.22;75.87
68912;SHT31;55953;51.650;-0.522;2022-10-31T13:17:57;17.27;76.09
68912;SHT31;55953;51.650;-0.522;2022-10-31T13:20:33;17.35;75.35
68912;SHT31;55953;51.650;-0.522;2022-10-31T13:23:10;17.35;75.13
68912;SHT31;55953;51.650;-0.522;2022-10-31T13:26:20;17.37;75.01
68912;SHT31;55953;51.650;-0.522;2022-10-31T13:31:30;17.40;75.23
68912;SHT31;55953;51.650;-0.522;2022-10-31T13:34:00;17.39;75.15
68912;SHT31;55953;51.650;-0.522;2022-10-31T13:36:41;17.28;75.32
68912;SHT31;55953;51.650;-0.522;2022-10-31T13:42:49;17.19;75.58
68912;SHT31;55953;51.650;-0.522;2022-10-31T13:45:22;17.15;75.17
68912;SHT31;55953;51.650;-0.522;2022-10-31T13:47:59;17.18;75.42
68912;SHT31;55953;51.650;-0.522;2022-10-31T13:50:30;17.26;75.16
68912;SHT31;55953;51.650;-0.522;2022-10-31T13:53:19;17.31;74.96
68912;SHT31;55953;51.650;-0.522;2022-10-31T13:55:50;17.36;75.16
68912;SHT31;55953;51.650;-0.522;2022-10-31T14:01:34;17.43;75.05
68912;SHT31;55953;51.650;-0.522;2022-10-31T14:04:06;17.54;74.82
68912;SHT31;55953;51.650;-0.522;2022-10-31T14:09:52;17.68;75.04
68912;SHT31;55953;51.650;-0.522;2022-10-31T14:15:16;17.75;73.93
68912;SHT31;55953;51.650;-0.522;2022-10-31T14:28:57;17.64;74.34
68912;SHT31;55953;51.650;-0.522;2022-10-31T14:51:01;17.17;74.86
68912;SHT31;55953;51.650;-0.522;2022-10-31T14:53:51;17.09;75.10
68912;SHT31;55953;51.650;-0.522;2022-10-31T14:56:24;17.03;75.04
68912;SHT31;55953;51.650;-0.522;2022-10-31T14:58:58;17.00;75.30
68912;SHT31;55953;51.650;-0.522;2022-10-31T15:01:31;16.89;74.78
68912;SHT31;55953;51.650;-0.522;2022-10-31T15:04:05;16.81;74.79
68912;SHT31;55953;51.650;-0.522;2022-10-31T15:07:02;16.73;74.99
68912;SHT31;55953;51.650;-0.522;2022-10-31T15:09:57;16.66;75.29
68912;SHT31;55953;51.650;-0.522;2022-10-31T15:12:34;16.65;75.25
68912;SHT31;55953;51.650;-0.522;2022-10-31T15:15:12;16.64;75.11
68912;SHT31;55953;51.650;-0.522;2022-10-31T15:17:47;16.53;75.17
68912;SHT31;55953;51.650;-0.522;2022-10-31T15:20:28;16.43;75.26
68912;SHT31;55953;51.650;-0.522;2022-10-31T15:23:11;16.35;75.55
68912;SHT31;55953;51.650;-0.522;2022-10-31T15:25:50;16.33;75.53
68912;SHT31;55953;51.650;-0.522;2022-10-31T15:28:25;16.28;76.08
68912;SHT31;55953;51.650;-0.522;2022-10-31T15:30:54;16.28;75.94
68912;SHT31;55953;51.650;-0.522;2022-10-31T15:33:27;16.29;75.91
68912;SHT31;55953;51.650;-0.522;2022-10-31T15:36:20;16.26;76.12
68912;SHT31;55953;51.650;-0.522;2022-10-31T15:38:56;16.18;75.71
68912;SHT31;55953;51.650;-0.522;2022-10-31T15:41:32;16.13;75.97
68912;SHT31;55953;51.650;-0.522;2022-10-31T15:44:26;16.08;76.23
68912;SHT31;55953;51.650;-0.522;2022-10-31T15:46:59;16.07;76.05
68912;SHT31;55953;51.650;-0.522;2022-10-31T15:49:37;16.00;76.32
68912;SHT31;55953;51.650;-0.522;2022-10-31T15:52:13;15.98;76.53
68912;SHT31;55953;51.650;-0.522;2022-10-31T15:54:51;15.96;76.52
68912;SHT31;55953;51.650;-0.522;2022-10-31T15:57:23;15.96;76.70
68912;SHT31;55953;51.650;-0.522;2022-10-31T15:59:53;15.89;76.82
68912;SHT31;55953;51.650;-0.522;2022-10-31T16:02:23;15.88;76.79
68912;SHT31;55953;51.650;-0.522;2022-10-31T16:04:54;15.84;77.12
68912;SHT31;55953;51.650;-0.522;2022-10-31T16:07:28;15.78;77.09
68912;SHT31;55953;51.650;-0.522;2022-10-31T16:10:00;15.81;77.11
68912;SHT31;55953;51.650;-0.522;2022-10-31T16:12:41;15.78;76.85
68912;SHT31;55953;51.650;-0.522;2022-10-31T16:15:13;15.72;76.99
68912;SHT31;55953;51.650;-0.522;2022-10-31T16:17:45;15.70;77.14
68912;SHT31;55953;51.650;-0.522;2022-10-31T16:20:21;15.67;77.19
68912;SHT31;55953;51.650;-0.522;2022-10-31T16:22:55;15.67;77.29
68912;SHT31;55953;51.650;-0.522;2022-10-31T16:25:29;15.66;77.35
68912;SHT31;55953;51.650;-0.522;2022-10-31T16:28:05;15.61;77.59
68912;SHT31;55953;51.650;-0.522;2022-10-31T16:30:46;15.63;77.73
68912;SHT31;55953;51.650;-0.522;2022-10-31T16:33:21;15.62;77.55
68912;SHT31;55953;51.650;-0.522;2022-10-31T16:35:51;15.63;77.56
68912;SHT31;55953;51.650;-0.522;2022-10-31T16:38:36;15.65;77.59
68912;SHT31;55953;51.650;-0.522;2022-10-31T16:41:04;15.63;77.73
68912;SHT31;55953;51.650;-0.522;2022-10-31T16:43:32;15.56;77.92
68912;SHT31;55953;51.650;-0.522;2022-10-31T16:46:00;15.50;77.87
68912;SHT31;55953;51.650;-0.522;2022-10-31T16:48:27;15.46;78.29
68912;SHT31;55953;51.650;-0.522;2022-10-31T16:50:55;15.42;78.22
68912;SHT31;55953;51.650;-0.522;2022-10-31T16:53:23;15.39;78.49
68912;SHT31;55953;51.650;-0.522;2022-10-31T16:55:56;15.38;78.81
68912;SHT31;55953;51.650;-0.522;2022-10-31T16:58:27;15.33;79.03
68912;SHT31;55953;51.650;-0.522;2022-10-31T17:00:58;15.31;79.17
68912;SHT31;55953;51.650;-0.522;2022-10-31T17:03:28;15.33;79.05
68912;SHT31;55953;51.650;-0.522;2022-10-31T17:05:56;15.31;79.13
68912;SHT31;55953;51.650;-0.522;2022-10-31T17:08:24;15.30;79.48
68912;SHT31;55953;51.650;-0.522;2022-10-31T17:10:53;15.29;79.64
68912;SHT31;55953;51.650;-0.522;2022-10-31T17:13:24;15.27;80.16
68912;SHT31;55953;51.650;-0.522;2022-10-31T17:15:59;15.22;80.49
68912;SHT31;55953;51.650;-0.522;2022-10-31T17:18:30;15.17;80.83
68912;SHT31;55953;51.650;-0.522;2022-10-31T17:20:59;15.10;81.36
68912;SHT31;55953;51.650;-0.522;2022-10-31T17:23:29;15.02;81.87
68912;SHT31;55953;51.650;-0.522;2022-10-31T17:25:59;14.93;82.50
68912;SHT31;55953;51.650;-0.522;2022-10-31T17:28:27;14.89;82.92
68912;SHT31;55953;51.650;-0.522;2022-10-31T17:30:55;14.83;83.24
68912;SHT31;55953;51.650;-0.522;2022-10-31T17:33:25;14.72;83.66
68912;SHT31;55953;51.650;-0.522;2022-10-31T17:35:53;14.62;83.94
68912;SHT31;55953;51.650;-0.522;2022-10-31T17:38:21;14.53;84.32
68912;SHT31;55953;51.650;-0.522;2022-10-31T17:40:49;14.47;84.76
68912;SHT31;55953;51.650;-0.522;2022-10-31T17:43:17;14.39;85.34
68912;SHT31;55953;51.650;-0.522;2022-10-31T17:45:45;14.28;85.69
68912;SHT31;55953;51.650;-0.522;2022-10-31T17:48:13;14.19;86.00
68912;SHT31;55953;51.650;-0.522;2022-10-31T17:50:40;14.13;86.41
68912;SHT31;55953;51.650;-0.522;2022-10-31T17:53:08;14.08;86.77
68912;SHT31;55953;51.650;-0.522;2022-10-31T17:55:36;14.05;86.74
68912;SHT31;55953;51.650;-0.522;2022-10-31T17:58:04;14.04;86.97
68912;SHT31;55953;51.650;-0.522;2022-10-31T18:00:32;14.05;87.16
68912;SHT31;55953;51.650;-0.522;2022-10-31T18:03:01;14.05;87.54
68912;SHT31;55953;51.650;-0.522;2022-10-31T18:05:31;14.01;87.78
68912;SHT31;55953;51.650;-0.522;2022-10-31T18:08:00;14.01;87.75
68912;SHT31;55953;51.650;-0.522;2022-10-31T18:10:30;13.99;88.00
68912;SHT31;55953;51.650;-0.522;2022-10-31T18:12:58;13.99;88.23
68912;SHT31;55953;51.650;-0.522;2022-10-31T18:15:27;13.97;88.47
68912;SHT31;55953;51.650;-0.522;2022-10-31T18:17:55;13.95;88.60
68912;SHT31;55953;51.650;-0.522;2022-10-31T18:20:22;13.96;88.58
68912;SHT31;55953;51.650;-0.522;2022-10-31T18:22:50;13.98;88.61
68912;SHT31;55953;51.650;-0.522;2022-10-31T18:25:18;13.99;88.69
68912;SHT31;55953;51.650;-0.522;2022-10-31T18:27:45;14.00;88.73
68912;SHT31;55953;51.650;-0.522;2022-10-31T18:30:13;14.03;88.90
68912;SHT31;55953;51.650;-0.522;2022-10-31T18:32:41;14.04;88.84
68912;SHT31;55953;51.650;-0.522;2022-10-31T18:35:09;14.07;88.83
68912;SHT31;55953;51.650;-0.522;2022-10-31T18:37:37;14.10;89.02